Time;durP1;ratioP1;P1;durP2;ratioP2;P2;SDS_P1;SDS_P2;PMS_P1;PMS_P2;Temp;Humidity;BMP_temperature;BMP_pressure;BME280_temperature;BME280_humidity;BME280_pressure;Samples;Min_cycle;Max_cycle;Signal;HPM_P1;HPM_P2
2021/01/27 00:00:30;;;;;;;12.77;9.40;;;8.80;80.10;;;;;;4977648;28;20042;-72
2021/01/27 00:02:59;;;;;;;12.65;9.48;;;9.10;80.40;;;;;;4977773;28;20047;-72
2021/01/27 00:05:33;;;;;;;13.52;9.75;;;9.00;80.40;;;;;;4976794;28;20031;-72
2021/01/27 00:08:00;;;;;;;13.97;9.20;;;8.90;80.50;;;;;;4996411;28;20124;-72
2021/01/27 00:10:27;;;;;;;12.25;8.93;;;9.10;80.60;;;;;;4996706;28;20274;-72
2021/01/27 00:12:53;;;;;;;13.48;9.95;;;8.90;80.50;;;;;;4996568;28;20038;-72
2021/01/27 00:15:27;;;;;;;14.38;10.40;;;9.30;81.30;;;;;;4996814;28;20038;-72
2021/01/27 00:17:53;;;;;;;14.73;10.32;;;9.30;81.00;;;;;;4996568;28;20034;-72
2021/01/27 00:20:21;;;;;;;14.65;10.00;;;9.10;80.80;;;;;;4996693;28;20139;-72
2021/01/27 00:22:47;;;;;;;16.67;10.63;;;9.10;80.80;;;;;;4996638;28;20038;-72
2021/01/27 00:25:15;;;;;;;15.80;11.00;;;9.00;80.90;;;;;;4996600;28;20042;-72
2021/01/27 00:27:41;;;;;;;15.38;11.07;;;9.10;81.00;;;;;;4996314;28;20101;-72
2021/01/27 00:30:14;;;;;;;21.77;11.27;;;9.20;81.00;;;;;;4996364;28;20049;-72
2021/01/27 00:32:40;;;;;;;19.80;12.25;;;9.10;80.90;;;;;;4996564;28;20049;-72
2021/01/27 00:35:07;;;;;;;20.20;12.70;;;9.10;81.00;;;;;;4996513;28;20034;-72
2021/01/27 00:37:33;;;;;;;18.77;12.45;;;9.20;81.10;;;;;;4996475;28;20045;-72
2021/01/27 00:39:59;;;;;;;15.80;11.32;;;9.10;81.10;;;;;;4996273;28;20148;-72
2021/01/27 00:42:25;;;;;;;16.92;11.07;;;9.10;81.10;;;;;;4991544;28;20494;-72
2021/01/27 00:44:51;;;;;;;46.55;11.50;;;9.50;81.40;;;;;;4976540;28;20501;-72
2021/01/27 00:47:17;;;;;;;20.27;12.93;;;9.40;81.20;;;;;;4976813;28;20069;-72
2021/01/27 00:49:43;;;;;;;21.58;12.57;;;9.30;81.20;;;;;;4975424;28;20066;-72
2021/01/27 00:52:09;;;;;;;19.65;11.98;;;9.20;81.20;;;;;;4985267;28;20597;-72
2021/01/27 00:54:35;;;;;;;20.52;13.05;;;9.40;81.40;;;;;;4996247;28;20038;-72
2021/01/27 00:57:01;;;;;;;26.23;12.70;;;9.20;81.30;;;;;;4996123;28;20069;-72
2021/01/27 00:59:26;;;;;;;19.45;11.75;;;8.90;81.20;;;;;;4995627;28;20518;-72
2021/01/27 01:01:52;;;;;;;16.35;11.73;;;9.40;81.40;;;;;;4996141;28;20061;-72
2021/01/27 01:04:18;;;;;;;18.63;11.48;;;9.00;81.30;;;;;;4981058;28;20101;-72
2021/01/27 01:06:44;;;;;;;18.17;11.18;;;9.30;81.40;;;;;;4975992;28;20126;-72
2021/01/27 01:09:09;;;;;;;18.85;11.50;;;9.20;81.60;;;;;;4976041;28;20494;-72
2021/01/27 01:11:35;;;;;;;24.23;12.82;;;9.60;81.90;;;;;;4976359;28;20043;-72
2021/01/27 01:14:01;;;;;;;19.70;10.52;;;9.40;81.80;;;;;;4976042;28;20035;-72
2021/01/27 01:16:27;;;;;;;26.52;11.20;;;9.40;81.80;;;;;;4976108;28;20096;-72
2021/01/27 01:18:53;;;;;;;17.88;10.77;;;9.50;82.00;;;;;;4975896;28;20096;-72
2021/01/27 01:21:18;;;;;;;23.42;11.32;;;9.60;82.10;;;;;;4976017;28;20038;-72
2021/01/27 01:23:44;;;;;;;28.73;12.27;;;9.40;82.20;;;;;;4975987;28;20043;-72
2021/01/27 01:26:10;;;;;;;28.55;11.52;;;9.40;82.30;;;;;;4975736;28;20045;-72
2021/01/27 01:28:36;;;;;;;34.83;11.80;;;9.40;82.30;;;;;;4975809;28;20521;-72
2021/01/27 01:31:02;;;;;;;24.02;10.52;;;9.40;82.40;;;;;;4975976;28;20046;-72
2021/01/27 01:33:31;;;;;;;33.20;11.43;;;9.30;82.50;;;;;;4974607;28;20042;-72
2021/01/27 01:35:57;;;;;;;33.75;11.68;;;9.70;82.80;;;;;;4975562;28;20070;-72
2021/01/27 01:38:24;;;;;;;30.20;11.30;;;9.30;82.80;;;;;;4975395;28;20454;-72
2021/01/27 01:40:55;;;;;;;21.50;11.75;;;9.40;83.00;;;;;;4975933;28;20041;-72
2021/01/27 01:43:26;;;;;;;28.48;11.05;;;9.30;83.20;;;;;;4975935;28;20105;-72
2021/01/27 01:45:53;;;;;;;21.30;11.93;;;9.20;83.30;;;;;;4983411;28;20041;-72
2021/01/27 01:48:18;;;;;;;19.48;11.32;;;9.40;83.40;;;;;;4994855;28;20125;-72
2021/01/27 01:50:46;;;;;;;17.83;10.70;;;9.40;83.20;;;;;;4994326;28;20588;-72
2021/01/27 01:53:13;;;;;;;22.02;12.05;;;9.30;83.10;;;;;;4994534;28;20042;-72
2021/01/27 01:55:40;;;;;;;28.98;10.45;;;9.30;83.10;;;;;;4994760;28;20039;-72
2021/01/27 01:58:06;;;;;;;27.58;10.73;;;9.50;83.20;;;;;;4994589;28;20379;-72
2021/01/27 02:00:33;;;;;;;21.33;11.63;;;9.40;83.30;;;;;;4994606;28;20096;-72
2021/01/27 02:02:59;;;;;;;26.85;9.88;;;9.60;83.40;;;;;;4994403;28;20053;-72
2021/01/27 02:05:26;;;;;;;26.85;11.07;;;9.60;83.20;;;;;;4994243;28;20123;-72
2021/01/27 02:07:57;;;;;;;27.15;10.82;;;9.80;83.40;;;;;;4994726;28;20502;-72
2021/01/27 02:10:23;;;;;;;20.50;10.63;;;9.70;83.30;;;;;;4995116;28;20046;-72
2021/01/27 02:13:07;;;;;;;24.88;9.65;;;10.00;83.40;;;;;;4994882;28;20049;-72
2021/01/27 02:15:36;;;;;;;14.95;9.27;;;10.10;83.50;;;;;;4994591;28;20034;-72
2021/01/27 02:18:17;;;;;;;23.08;9.98;;;9.80;83.40;;;;;;4994498;28;20042;-72
2021/01/27 02:21:17;;;;;;;15.65;8.40;;;9.70;83.50;;;;;;4994178;28;20073;-72
2021/01/27 02:24:10;;;;;;;17.00;8.15;;;10.00;83.70;;;;;;4994320;28;20038;-72
2021/01/27 02:27:01;;;;;;;18.70;8.70;;;10.40;83.90;;;;;;4994629;28;20030;-72
2021/01/27 02:29:56;;;;;;;14.05;8.50;;;10.30;83.90;;;;;;4993920;28;20039;-72
2021/01/27 02:32:49;;;;;;;20.98;8.52;;;10.20;84.00;;;;;;4993775;28;20473;-72
2021/01/27 02:35:22;;;;;;;16.15;8.30;;;10.00;83.80;;;;;;4994228;28;20034;-72
2021/01/27 02:38:02;;;;;;;23.30;9.07;;;10.20;83.90;;;;;;4993943;28;20044;-72
2021/01/27 02:40:51;;;;;;;33.80;9.93;;;10.10;83.90;;;;;;4994637;28;20042;-72
2021/01/27 02:43:24;;;;;;;34.75;9.65;;;10.20;84.10;;;;;;4994315;28;20038;-72
2021/01/27 02:46:21;;;;;;;19.17;9.00;;;10.20;84.20;;;;;;4994547;28;20038;-72
2021/01/27 02:49:01;;;;;;;21.40;9.23;;;10.30;84.30;;;;;;4992410;28;20069;-72
2021/01/27 02:51:47;;;;;;;15.02;8.52;;;10.10;84.30;;;;;;4992105;28;20038;-72
2021/01/27 02:54:25;;;;;;;27.27;8.75;;;10.30;84.40;;;;;;4992409;28;20046;-70
2021/01/27 02:57:08;;;;;;;14.93;8.93;;;10.10;84.30;;;;;;4993007;28;20047;-71
2021/01/27 02:59:44;;;;;;;15.52;8.40;;;10.10;84.40;;;;;;4992646;28;20042;-71
2021/01/27 03:02:16;;;;;;;14.82;8.10;;;10.30;84.70;;;;;;4992725;28;20039;-71
2021/01/27 03:05:06;;;;;;;15.65;8.48;;;10.30;84.80;;;;;;4993403;28;20116;-71
2021/01/27 03:07:36;;;;;;;13.20;8.13;;;10.50;85.00;;;;;;4993770;28;20474;-72
2021/01/27 03:10:11;;;;;;;13.05;8.10;;;10.40;84.90;;;;;;4994121;28;20077;-73
2021/01/27 03:12:37;;;;;;;;;;;9.90;84.80;;;;;;4996881;28;20042;-73
2021/01/27 03:15:11;;;;;;;12.93;8.20;;;10.40;84.90;;;;;;4998117;28;20357;-72
2021/01/27 03:17:41;;;;;;;15.30;8.32;;;10.70;85.20;;;;;;4997689;28;20097;-72
2021/01/27 03:20:17;;;;;;;13.93;8.30;;;10.40;85.50;;;;;;4997990;28;20053;-72
2021/01/27 03:22:46;;;;;;;13.30;7.93;;;10.30;85.20;;;;;;4997905;28;20038;-72
2021/01/27 03:25:19;;;;;;;14.10;8.63;;;10.40;85.40;;;;;;4997566;28;20116;-72
2021/01/27 03:28:04;;;;;;;14.27;8.27;;;10.40;85.60;;;;;;4997873;28;20038;-73
2021/01/27 03:30:31;;;;;;;12.60;7.72;;;10.50;85.80;;;;;;4997608;28;20186;-72
2021/01/27 03:33:00;;;;;;;14.43;7.97;;;10.30;85.70;;;;;;4997785;28;20042;-73
2021/01/27 03:35:49;;;;;;;15.18;8.27;;;10.40;86.00;;;;;;4997860;28;20034;-72
2021/01/27 03:38:50;;;;;;;15.20;8.80;;;10.40;86.20;;;;;;4997612;28;20172;-72
2021/01/27 03:41:50;;;;;;;15.63;9.25;;;10.60;86.40;;;;;;4997387;28;20038;-72
2021/01/27 03:44:38;;;;;;;13.82;8.35;;;10.60;86.50;;;;;;4992450;28;20038;-72
2021/01/27 03:47:25;;;;;;;16.55;8.30;;;10.70;86.60;;;;;;4995655;28;20042;-72
2021/01/27 03:49:59;;;;;;;16.10;8.63;;;10.50;86.60;;;;;;4995806;28;20070;-72
2021/01/27 03:52:35;;;;;;;16.30;9.10;;;11.00;86.90;;;;;;4995723;28;20049;-72
2021/01/27 03:55:21;;;;;;;14.65;8.23;;;10.60;86.80;;;;;;4995977;28;20089;-72
2021/01/27 03:58:25;;;;;;;16.38;8.82;;;10.80;86.90;;;;;;4995557;28;20116;-72
2021/01/27 04:00:58;;;;;;;16.88;9.02;;;10.60;86.90;;;;;;4995687;28;20046;-72
2021/01/27 04:03:24;;;;;;;15.88;8.73;;;10.70;87.00;;;;;;4995936;28;20042;-72
2021/01/27 04:05:50;;;;;;;16.23;8.70;;;10.90;87.10;;;;;;4995997;28;20679;-72
2021/01/27 04:08:16;;;;;;;17.58;9.15;;;10.80;87.10;;;;;;4995928;28;20389;-72
2021/01/27 04:10:42;;;;;;;17.00;9.20;;;10.90;87.40;;;;;;4995507;28;20085;-72
2021/01/27 04:13:08;;;;;;;18.75;9.00;;;10.60;87.40;;;;;;4995769;28;20092;-72
2021/01/27 04:15:34;;;;;;;19.58;9.73;;;10.90;87.60;;;;;;4995813;28;20038;-72
2021/01/27 04:18:00;;;;;;;16.73;9.25;;;10.90;87.70;;;;;;4995742;28;20042;-72
2021/01/27 04:20:28;;;;;;;14.93;8.38;;;10.90;87.70;;;;;;4995697;28;20042;-72
2021/01/27 04:22:54;;;;;;;18.23;8.63;;;11.00;87.80;;;;;;4995570;28;20078;-72
2021/01/27 04:25:20;;;;;;;16.23;8.80;;;10.90;87.70;;;;;;4995770;28;20605;-73
2021/01/27 04:27:46;;;;;;;16.70;8.52;;;11.00;87.80;;;;;;4995470;28;20202;-71
2021/01/27 04:30:15;;;;;;;14.48;8.07;;;11.10;87.90;;;;;;4995562;28;20046;-73
2021/01/27 04:32:41;;;;;;;15.68;8.27;;;11.00;87.80;;;;;;4995688;28;20046;-73
2021/01/27 04:35:09;;;;;;;15.25;8.23;;;11.10;87.90;;;;;;4995483;28;20049;-73
2021/01/27 04:37:35;;;;;;;17.23;8.52;;;11.20;88.00;;;;;;4995671;28;20038;-73
2021/01/27 04:40:03;;;;;;;16.25;8.52;;;11.10;88.10;;;;;;4995161;28;20101;-72
2021/01/27 04:42:29;;;;;;;16.60;8.68;;;11.10;88.10;;;;;;4994970;28;20038;-72
2021/01/27 04:44:57;;;;;;;15.80;8.70;;;11.30;88.30;;;;;;4994197;28;20519;-72
2021/01/27 04:47:37;;;;;;;16.00;8.65;;;11.00;88.10;;;;;;4994825;28;20359;-72
2021/01/27 04:50:23;;;;;;;15.80;8.18;;;11.20;88.50;;;;;;4966464;28;849108;-72
2021/01/27 04:53:07;;;;;;;15.15;8.48;;;11.20;88.60;;;;;;4996275;28;20043;-72
2021/01/27 04:55:42;;;;;;;15.38;8.65;;;11.30;88.70;;;;;;4996359;28;20130;-72
2021/01/27 04:58:29;;;;;;;16.67;8.32;;;11.20;88.60;;;;;;4995924;28;20042;-72
2021/01/27 05:01:34;;;;;;;15.68;8.70;;;11.10;88.70;;;;;;4995756;28;20061;-72
2021/01/27 05:04:23;;;;;;;17.35;8.68;;;11.10;88.80;;;;;;4995813;28;20046;-72
2021/01/27 05:06:56;;;;;;;15.02;7.63;;;11.20;88.90;;;;;;4995717;28;20137;-72
2021/01/27 05:09:37;;;;;;;17.98;7.97;;;11.20;89.00;;;;;;4995898;28;20477;-72
2021/01/27 05:12:06;;;;;;;15.20;7.45;;;11.20;89.10;;;;;;4995836;28;20042;-72
2021/01/27 05:14:33;;;;;;;13.75;7.78;;;11.30;89.10;;;;;;4995445;28;20049;-72
2021/01/27 05:17:03;;;;;;;17.25;7.40;;;11.30;89.30;;;;;;4995998;28;20038;-72
2021/01/27 05:19:30;;;;;;;15.05;7.22;;;11.10;89.30;;;;;;4995794;28;20049;-72
2021/01/27 05:21:58;;;;;;;15.10;6.88;;;11.20;89.30;;;;;;4995716;28;20042;-72
2021/01/27 05:24:24;;;;;;;12.63;6.60;;;11.10;89.50;;;;;;4995700;28;20057;-72
2021/01/27 05:26:58;;;;;;;11.68;5.90;;;11.20;89.70;;;;;;4995594;28;20037;-72
2021/01/27 05:29:33;;;;;;;11.60;5.75;;;11.30;89.80;;;;;;4995168;28;20046;-72
2021/01/27 05:32:05;;;;;;;;;;;11.30;89.90;;;;;;4995848;28;20039;-72
2021/01/27 05:34:40;;;;;;;13.77;5.80;;;11.30;89.70;;;;;;4995176;28;19914;-72
2021/01/27 05:37:26;;;;;;;13.85;5.93;;;11.50;89.90;;;;;;4995073;28;20038;-72
2021/01/27 05:40:06;;;;;;;9.85;4.88;;;11.30;89.90;;;;;;4995253;28;20046;-72
2021/01/27 05:42:34;;;;;;;10.45;5.35;;;11.30;89.90;;;;;;4995494;28;20066;-72
2021/01/27 05:45:31;;;;;;;10.73;4.63;;;11.20;89.90;;;;;;4994685;28;20038;-72
2021/01/27 05:48:23;;;;;;;9.30;4.57;;;11.40;90.00;;;;;;4995215;28;20092;-72
2021/01/27 05:50:51;;;;;;;9.48;4.53;;;11.00;89.90;;;;;;4995244;28;20109;-72
2021/01/27 05:53:23;;;;;;;9.98;4.85;;;11.30;90.10;;;;;;4994680;28;20034;-73
2021/01/27 05:56:15;;;;;;;10.93;5.00;;;11.40;90.10;;;;;;4994244;28;20069;-72
2021/01/27 05:58:58;;;;;;;10.35;4.88;;;11.50;90.20;;;;;;4992848;28;20125;-71
2021/01/27 06:01:41;;;;;;;9.93;4.63;;;11.50;90.10;;;;;;4992821;28;20134;-72
2021/01/27 06:04:10;;;;;;;10.60;4.45;;;11.50;90.10;;;;;;4992657;28;20042;-72
2021/01/27 06:06:46;;;;;;;11.90;4.50;;;11.40;90.20;;;;;;4992725;28;20038;-73
2021/01/27 06:09:12;;;;;;;9.65;4.47;;;11.50;90.50;;;;;;4993072;28;20054;-72
2021/01/27 06:11:38;;;;;;;11.15;5.00;;;11.50;90.20;;;;;;4994392;28;20049;-72
2021/01/27 06:14:16;;;;;;;11.98;6.60;;;11.50;90.30;;;;;;4994707;28;20046;-72
2021/01/27 06:16:45;;;;;;;13.73;6.00;;;11.40;90.30;;;;;;4994012;28;20035;-73
2021/01/27 06:19:20;;;;;;;13.50;6.05;;;11.70;90.40;;;;;;4994540;28;20126;-73
2021/01/27 06:22:13;;;;;;;13.52;6.32;;;11.50;90.40;;;;;;4990333;28;20065;-72
2021/01/27 06:25:22;;;;;;;13.57;5.65;;;11.50;90.40;;;;;;4992059;28;20050;-72
2021/01/27 06:28:03;;;;;;;9.60;5.03;;;11.50;90.40;;;;;;4877384;29;20037;-72
2021/01/27 06:30:56;;;;;;;13.00;5.75;;;11.50;90.50;;;;;;4877628;29;20139;-72
2021/01/27 06:33:59;;;;;;;13.50;6.03;;;11.50;90.40;;;;;;4949983;28;20494;-72
2021/01/27 06:36:36;;;;;;;12.90;4.88;;;11.60;90.50;;;;;;4976876;28;20042;-72
2021/01/27 06:39:19;;;;;;;14.57;5.47;;;11.50;90.50;;;;;;4992692;28;20073;-73
2021/01/27 06:42:12;;;;;;;13.18;5.13;;;11.40;90.50;;;;;;4978944;28;20039;-73
2021/01/27 06:44:57;;;;;;;11.90;4.78;;;11.50;90.60;;;;;;4984320;28;20042;-73
2021/01/27 06:47:31;;;;;;;9.70;4.00;;;11.40;90.70;;;;;;4976543;28;20066;-73
2021/01/27 06:50:27;;;;;;;11.70;4.07;;;11.50;90.80;;;;;;4978825;28;20063;-73
2021/01/27 06:53:19;;;;;;;9.75;3.85;;;11.60;90.90;;;;;;4979038;28;20039;-73
2021/01/27 06:56:00;;;;;;;12.23;3.85;;;11.70;90.90;;;;;;4979072;28;20047;-75
2021/01/27 06:58:44;;;;;;;9.75;4.07;;;11.50;90.90;;;;;;4979007;28;20434;-74
2021/01/27 07:01:44;;;;;;;11.50;4.30;;;11.50;90.90;;;;;;4978901;28;20101;-75
2021/01/27 07:04:43;;;;;;;11.02;4.65;;;11.50;90.90;;;;;;4979279;28;20039;-73
2021/01/27 07:07:30;;;;;;;15.90;4.63;;;11.80;91.10;;;;;;4978852;28;20035;-74
2021/01/27 07:10:16;;;;;;;14.75;4.57;;;11.70;90.90;;;;;;4978795;28;20482;-75
2021/01/27 07:12:46;;;;;;;15.07;5.40;;;11.50;90.90;;;;;;4979119;28;20553;-74
2021/01/27 07:15:36;;;;;;;15.85;5.18;;;11.70;91.00;;;;;;4978538;28;20038;-75
2021/01/27 07:18:27;;;;;;;16.05;5.47;;;12.20;91.20;;;;;;4978422;28;20070;-74
2021/01/27 07:21:03;;;;;;;11.60;4.88;;;11.80;91.00;;;;;;4978831;28;20043;-74
2021/01/27 07:24:07;;;;;;;13.35;5.00;;;11.60;90.90;;;;;;4979010;28;20482;-73
2021/01/27 07:26:52;;;;;;;15.40;4.80;;;11.60;91.00;;;;;;4977963;28;20049;-78
2021/01/27 07:29:19;;;;;;;14.80;4.80;;;11.60;90.90;;;;;;4978665;28;20131;-73
2021/01/27 07:31:59;;;;;;;11.65;4.75;;;11.60;91.00;;;;;;4978698;28;20136;-74
2021/01/27 07:34:31;;;;;;;14.82;4.65;;;11.60;91.10;;;;;;4978282;28;20540;-74
2021/01/27 07:37:13;;;;;;;9.73;4.10;;;11.60;91.10;;;;;;4981818;28;20584;-74
2021/01/27 07:40:08;;;;;;;12.45;4.47;;;11.60;91.20;;;;;;5008292;28;20079;-76
2021/01/27 07:42:47;;;;;;;13.40;4.70;;;11.50;91.20;;;;;;4997006;28;20540;-74
2021/01/27 07:45:18;;;;;;;9.15;4.28;;;11.60;91.20;;;;;;4997426;28;20038;-74
2021/01/27 07:47:49;;;;;;;12.35;4.57;;;11.80;91.30;;;;;;4996906;28;20038;-75
2021/01/27 07:50:18;;;;;;;14.25;4.45;;;11.60;91.20;;;;;;4996420;28;20473;-75
2021/01/27 07:52:55;;;;;;;13.40;5.10;;;11.70;91.20;;;;;;4996904;28;20062;-75
2021/01/27 07:55:27;;;;;;;13.80;4.85;;;11.80;91.20;;;;;;4996995;28;20121;-74
2021/01/27 07:58:02;;;;;;;14.52;4.60;;;11.70;91.20;;;;;;4997003;28;20049;-74
2021/01/27 08:00:34;;;;;;;9.30;4.00;;;11.80;91.30;;;;;;4988380;28;20062;-74
2021/01/27 08:03:23;;;;;;;9.73;4.18;;;11.70;91.30;;;;;;4990249;28;20034;-74
2021/01/27 08:05:49;;;;;;;10.52;4.07;;;11.70;91.30;;;;;;4974245;28;20096;-74
2021/01/27 08:08:20;;;;;;;11.75;4.38;;;11.80;91.30;;;;;;4990826;28;20041;-74
2021/01/27 08:10:47;;;;;;;11.05;4.07;;;11.90;91.30;;;;;;4996313;28;20409;-74
2021/01/27 08:13:35;;;;;;;10.23;4.13;;;11.70;91.30;;;;;;4996563;28;20042;-74
2021/01/27 08:16:25;;;;;;;9.68;3.65;;;11.90;91.40;;;;;;4996504;28;20486;-74
2021/01/27 08:19:10;;;;;;;11.27;3.80;;;11.80;91.30;;;;;;4996504;28;20046;-74
2021/01/27 08:21:56;;;;;;;7.55;3.55;;;11.90;91.40;;;;;;4996436;28;20034;-74
2021/01/27 08:24:34;;;;;;;11.20;3.55;;;11.60;91.30;;;;;;4996792;28;20034;-74
2021/01/27 08:27:15;;;;;;;6.43;3.55;;;12.00;91.40;;;;;;4996393;28;20046;-74
2021/01/27 08:29:54;;;;;;;8.77;3.92;;;11.90;91.40;;;;;;4996476;28;20068;-73
2021/01/27 08:32:30;;;;;;;7.60;3.55;;;12.00;91.40;;;;;;4995740;28;20054;-73
2021/01/27 08:35:08;;;;;;;7.25;3.85;;;12.00;91.40;;;;;;4995997;28;20133;-74
2021/01/27 08:37:40;;;;;;;9.75;4.20;;;12.10;91.40;;;;;;4995988;28;20042;-74
2021/01/27 08:40:27;;;;;;;8.05;4.03;;;12.10;91.40;;;;;;4995956;28;20133;-74
2021/01/27 08:42:56;;;;;;;7.20;4.20;;;12.10;91.40;;;;;;4996060;28;20042;-77
2021/01/27 08:45:22;;;;;;;10.32;5.15;;;12.10;91.40;;;;;;4995826;28;20502;-76
2021/01/27 08:47:53;;;;;;;11.13;5.18;;;12.10;91.30;;;;;;4995622;28;20070;-77
2021/01/27 08:50:45;;;;;;;8.88;5.10;;;12.20;91.30;;;;;;4995433;28;20506;-77
2021/01/27 08:53:19;;;;;;;7.97;4.60;;;12.30;91.40;;;;;;4994625;28;20486;-77
2021/01/27 08:55:45;;;;;;;8.35;4.78;;;12.20;91.40;;;;;;4994352;28;20045;-76
2021/01/27 08:58:31;;;;;;;7.90;3.92;;;12.20;91.50;;;;;;4994029;28;20039;-76
2021/01/27 09:01:23;;;;;;;8.52;4.90;;;12.20;91.60;;;;;;4995041;28;20042;-77
2021/01/27 09:03:51;;;;;;;10.23;4.63;;;12.30;91.60;;;;;;4964598;28;20053;-76
2021/01/27 09:06:34;;;;;;;6.55;4.15;;;12.30;91.60;;;;;;4994576;28;20149;-76
2021/01/27 09:09:15;;;;;;;9.07;3.72;;;12.50;91.60;;;;;;4994832;28;20080;-76
2021/01/27 09:11:42;;;;;;;4.85;3.17;;;12.50;91.60;;;;;;4997598;28;20038;-76
2021/01/27 09:14:13;;;;;;;6.50;3.50;;;12.50;91.60;;;;;;4994543;28;20038;-77
2021/01/27 09:16:41;;;;;;;5.68;3.08;;;12.60;91.50;;;;;;4995131;28;20117;-75
2021/01/27 09:19:15;;;;;;;5.25;2.72;;;12.70;91.50;;;;;;4994669;28;20046;-76
2021/01/27 09:22:05;;;;;;;5.07;3.60;;;12.90;91.50;;;;;;4992731;28;20046;-76
2021/01/27 09:24:46;;;;;;;6.30;3.67;;;12.70;91.50;;;;;;4989416;28;20045;-77
2021/01/27 09:27:21;;;;;;;6.38;3.75;;;12.40;91.50;;;;;;4991987;28;20050;-77
2021/01/27 09:29:55;;;;;;;11.15;7.00;;;12.60;91.50;;;;;;4991747;28;20045;-77
2021/01/27 09:32:21;;;;;;;10.82;6.50;;;12.60;91.60;;;;;;4990662;28;20053;-76
2021/01/27 09:34:49;;;;;;;10.15;5.95;;;12.70;91.60;;;;;;4993843;28;20034;-76
2021/01/27 09:37:23;;;;;;;12.63;6.78;;;12.70;91.70;;;;;;4989810;28;20510;-76
2021/01/27 09:39:55;;;;;;;15.18;7.82;;;12.70;91.60;;;;;;4993227;28;20051;-76
2021/01/27 09:42:27;;;;;;;5.85;4.28;;;12.70;91.70;;;;;;4993762;28;20050;-76
2021/01/27 09:45:00;;;;;;;3.60;2.83;;;12.90;91.60;;;;;;4993737;28;20097;-76
2021/01/27 09:47:27;;;;;;;7.32;4.15;;;12.90;91.60;;;;;;4993607;28;20046;-74
2021/01/27 09:49:56;;;;;;;3.08;2.00;;;12.90;91.50;;;;;;4993490;28;20078;-75
2021/01/27 09:52:23;;;;;;;6.40;4.32;;;12.90;91.50;;;;;;4994916;28;20034;-74
2021/01/27 09:54:54;;;;;;;15.57;8.23;;;12.80;91.50;;;;;;4994868;28;20069;-74
2021/01/27 09:57:23;;;;;;;5.03;2.67;;;12.70;91.50;;;;;;4995271;28;20041;-74
2021/01/27 09:59:53;;;;;;;4.63;2.90;;;12.90;91.60;;;;;;4995227;28;20046;-74
2021/01/27 10:02:34;;;;;;;11.15;4.32;;;13.00;91.70;;;;;;4994645;28;20482;-74
2021/01/27 10:05:02;;;;;;;7.30;3.95;;;12.60;91.60;;;;;;4994332;28;20046;-75
2021/01/27 10:07:34;;;;;;;6.20;3.50;;;13.00;91.60;;;;;;4993980;28;20061;-74
2021/01/27 10:10:08;;;;;;;7.30;3.67;;;13.10;91.60;;;;;;4993955;28;20050;-74
2021/01/27 10:12:35;;;;;;;14.40;5.65;;;13.10;91.60;;;;;;4994685;28;20034;-74
2021/01/27 10:15:06;;;;;;;15.40;7.80;;;13.10;91.60;;;;;;4994159;28;20034;-74
2021/01/27 10:17:32;;;;;;;17.02;8.10;;;13.10;91.60;;;;;;4994139;28;20192;-75
2021/01/27 10:20:27;;;;;;;17.48;8.70;;;13.20;91.60;;;;;;4994835;28;20438;-75
2021/01/27 10:22:56;;;;;;;14.23;7.35;;;13.10;91.60;;;;;;4995002;28;20077;-74
2021/01/27 10:25:35;;;;;;;8.50;5.00;;;13.50;91.70;;;;;;4994622;28;20042;-75
2021/01/27 10:28:21;;;;;;;12.05;6.30;;;13.60;91.70;;;;;;4994681;28;20051;-73
2021/01/27 10:31:00;;;;;;;6.15;1.52;;;13.90;91.60;;;;;;4994494;28;20038;-74
2021/01/27 10:33:43;;;;;;;6.03;2.33;;;14.10;91.50;;;;;;4994639;28;20042;-74
2021/01/27 10:36:30;;;;;;;4.15;1.88;;;14.00;91.40;;;;;;4994324;28;20030;-74
2021/01/27 10:39:24;;;;;;;5.93;1.75;;;14.10;91.30;;;;;;4994094;28;20054;-75
2021/01/27 10:42:12;;;;;;;3.85;2.40;;;14.20;91.20;;;;;;4994685;28;20037;-74
2021/01/27 10:44:40;;;;;;;5.60;3.20;;;14.30;91.20;;;;;;4992727;28;20116;-74
2021/01/27 10:47:13;;;;;;;59.75;6.55;;;14.40;91.10;;;;;;4993200;28;20109;-72
2021/01/27 10:49:46;;;;;;;3.38;1.75;;;14.50;91.10;;;;;;4979220;28;20156;-71
2021/01/27 10:52:27;;;;;;;4.88;1.27;;;14.60;90.90;;;;;;4994214;28;20544;-72
2021/01/27 10:55:07;;;;;;;2.83;0.95;;;14.80;90.80;;;;;;4989098;28;20046;-72
2021/01/27 10:57:33;;;;;;;5.93;1.85;;;14.90;90.70;;;;;;4987270;28;20061;-72
2021/01/27 10:59:58;;;;;;;5.43;1.38;;;14.90;90.50;;;;;;4976833;28;20467;-71
2021/01/27 11:02:26;;;;;;;3.20;0.90;;;15.50;90.60;;;;;;4992022;28;20038;-72
2021/01/27 11:04:52;;;;;;;3.33;0.90;;;14.70;90.40;;;;;;4993495;28;20123;-72
2021/01/27 11:07:18;;;;;;;3.92;1.15;;;14.90;90.50;;;;;;4993827;28;20445;-72
2021/01/27 11:09:46;;;;;;;3.83;0.73;;;14.50;90.30;;;;;;4993326;28;20046;-72
2021/01/27 11:12:12;;;;;;;4.63;0.73;;;14.50;90.30;;;;;;4993288;28;20050;-72
2021/01/27 11:14:37;;;;;;;4.25;0.70;;;14.40;90.30;;;;;;4993575;28;20100;-71
2021/01/27 11:17:03;;;;;;;8.32;1.30;;;14.50;90.40;;;;;;4993720;28;20045;-72
2021/01/27 11:19:29;;;;;;;5.28;1.67;;;14.50;90.40;;;;;;4995028;28;20413;-71
2021/01/27 11:21:55;;;;;;;6.53;2.60;;;14.50;90.40;;;;;;4993744;28;20049;-71
2021/01/27 11:24:20;;;;;;;3.85;1.85;;;14.60;90.40;;;;;;4994210;28;20559;-71
2021/01/27 11:26:46;;;;;;;7.25;1.98;;;14.50;90.30;;;;;;4994191;28;20034;-72
2021/01/27 11:29:12;;;;;;;8.77;3.00;;;14.60;90.30;;;;;;4993765;28;20057;-73
2021/01/27 11:31:38;;;;;;;5.47;2.67;;;14.70;90.30;;;;;;4994153;28;20398;-73
2021/01/27 11:34:04;;;;;;;6.60;2.60;;;14.70;90.20;;;;;;4997017;28;20425;-72
2021/01/27 11:36:30;;;;;;;6.97;2.80;;;14.70;90.20;;;;;;4996950;28;20042;-74
2021/01/27 11:38:55;;;;;;;4.45;1.90;;;14.80;90.20;;;;;;4997824;28;20069;-73
2021/01/27 11:41:23;;;;;;;2.97;0.80;;;14.90;90.00;;;;;;4997707;28;20050;-75
2021/01/27 11:43:50;;;;;;;5.60;0.80;;;14.90;90.10;;;;;;4995318;28;20086;-73
2021/01/27 11:46:18;;;;;;;5.40;1.00;;;15.10;90.10;;;;;;4981367;28;20045;-74
2021/01/27 11:48:44;;;;;;;1.73;0.47;;;15.00;90.00;;;;;;4996833;28;20061;-74
2021/01/27 11:51:13;;;;;;;1.08;0.40;;;14.80;89.90;;;;;;4996805;28;20038;-74
2021/01/27 11:53:40;;;;;;;2.40;0.47;;;15.00;89.80;;;;;;4985320;28;20077;-74
2021/01/27 11:56:07;;;;;;;2.63;0.50;;;15.00;89.80;;;;;;4977471;28;20031;-74
2021/01/27 11:58:33;;;;;;;2.95;0.40;;;15.10;90.10;;;;;;4977694;28;20070;-74
2021/01/27 12:00:59;;;;;;;2.60;0.20;;;15.30;89.60;;;;;;4977781;28;20034;-74
2021/01/27 12:03:25;;;;;;;3.15;0.30;;;15.50;89.60;;;;;;4977500;28;20043;-75
2021/01/27 12:05:51;;;;;;;4.90;0.50;;;15.50;89.40;;;;;;4977324;28;20097;-74
2021/01/27 12:08:17;;;;;;;3.10;0.40;;;15.20;89.00;;;;;;4977642;28;20126;-74
2021/01/27 12:10:44;;;;;;;4.50;0.50;;;15.50;89.00;;;;;;4977412;28;20058;-76
2021/01/27 12:13:10;;;;;;;2.15;0.55;;;15.50;88.60;;;;;;4976832;28;20093;-75
2021/01/27 12:15:37;;;;;;;2.17;0.43;;;15.40;88.50;;;;;;4977502;28;20502;-75
2021/01/27 12:18:04;;;;;;;2.15;0.30;;;16.00;88.90;;;;;;4977218;28;20406;-73
2021/01/27 12:20:29;;;;;;;2.17;0.50;;;15.40;89.00;;;;;;4977190;28;20038;-73
2021/01/27 12:22:56;;;;;;;2.05;0.80;;;15.30;88.60;;;;;;4977076;28;20046;-74
2021/01/27 12:25:22;;;;;;;1.98;0.68;;;15.30;88.60;;;;;;4976866;28;20453;-75
2021/01/27 12:27:48;;;;;;;5.10;1.00;;;15.30;88.50;;;;;;4977222;28;20042;-75
2021/01/27 12:30:14;;;;;;;4.03;0.77;;;15.20;88.50;;;;;;4976984;28;20518;-73
2021/01/27 12:32:41;;;;;;;4.88;1.10;;;15.00;88.70;;;;;;4993915;28;20106;-74
2021/01/27 12:35:08;;;;;;;2.08;0.63;;;15.00;88.90;;;;;;4996539;28;20062;-73
2021/01/27 12:37:34;;;;;;;5.30;0.70;;;14.90;88.90;;;;;;4995664;28;20046;-74
2021/01/27 12:40:00;;;;;;;4.20;0.70;;;15.10;89.10;;;;;;4995578;28;20038;-73
2021/01/27 12:42:26;;;;;;;2.55;0.88;;;14.90;89.10;;;;;;4995527;28;20513;-73
2021/01/27 12:44:52;;;;;;;3.38;0.82;;;14.90;89.10;;;;;;4994728;28;20069;-73
2021/01/27 12:47:22;;;;;;;3.33;0.85;;;14.80;89.10;;;;;;4995774;28;20045;-73
2021/01/27 12:49:48;;;;;;;2.33;1.00;;;14.80;89.50;;;;;;4994965;28;20124;-73
2021/01/27 12:52:14;;;;;;;4.63;1.45;;;14.70;89.10;;;;;;4995048;28;20506;-73
2021/01/27 12:54:40;;;;;;;3.90;1.40;;;14.60;89.20;;;;;;4995986;28;20046;-73
2021/01/27 12:57:06;;;;;;;4.93;1.48;;;14.40;89.20;;;;;;4995994;28;20049;-73
2021/01/27 12:59:32;;;;;;;5.22;1.42;;;14.20;89.20;;;;;;4995928;28;20050;-73
2021/01/27 13:01:58;;;;;;;3.00;1.15;;;14.40;89.40;;;;;;4995340;28;20045;-73
2021/01/27 13:04:24;;;;;;;2.20;0.75;;;14.50;89.60;;;;;;4995514;28;20060;-73
2021/01/27 13:06:50;;;;;;;0.98;0.50;;;14.00;89.50;;;;;;4995745;28;20128;-73
2021/01/27 13:09:16;;;;;;;1.50;0.90;;;14.20;90.00;;;;;;4994912;28;20050;-73
2021/01/27 13:11:41;;;;;;;1.45;0.52;;;14.00;90.30;;;;;;4995431;28;20046;-71
2021/01/27 13:14:07;;;;;;;1.85;0.40;;;14.30;90.20;;;;;;4995119;28;20101;-71